createdAt,value
2018-07-09T00:00:56.336Z,75.15
2018-07-09T00:03:24.541Z,74.96
2018-07-09T00:05:52.785Z,74.85
2018-07-09T00:08:21.066Z,75.42
2018-07-09T00:10:56.312Z,75.83
2018-07-09T00:13:25.187Z,76.47
2018-07-09T00:15:53.672Z,75.96
2018-07-09T00:18:21.855Z,75.93
2018-07-09T00:20:50.057Z,75.77
2018-07-09T00:23:18.242Z,75.81
2018-07-09T00:25:47.617Z,75.96
2018-07-09T00:28:16.737Z,76.58
2018-07-09T00:30:45.005Z,76.79
2018-07-09T00:33:13.236Z,76.33
2018-07-09T00:35:41.432Z,76.25
2018-07-09T00:38:09.564Z,76.37
2018-07-09T00:40:37.750Z,76.83
2018-07-09T00:43:05.915Z,77.13
2018-07-09T00:45:34.036Z,76.68
2018-07-09T00:48:02.185Z,76.93
2018-07-09T00:50:30.648Z,77.13
2018-07-09T00:52:58.783Z,76.83
2018-07-09T00:55:27.772Z,76.96
2018-07-09T00:57:55.908Z,77.07
2018-07-09T01:00:24.080Z,76.66
2018-07-09T01:02:52.256Z,76.67
2018-07-09T01:05:20.395Z,76.28
2018-07-09T01:07:48.530Z,76.03
2018-07-09T01:10:17.519Z,76.32
2018-07-09T01:12:45.665Z,76.21
2018-07-09T01:15:13.849Z,76.28
2018-07-09T01:17:41.996Z,76.63
2018-07-09T01:20:10.127Z,75.98
2018-07-09T01:22:38.251Z,76.02
2018-07-09T01:25:06.393Z,76.54
2018-07-09T01:27:34.572Z,76.58
2018-07-09T01:30:08.654Z,77.20
2018-07-09T01:32:37.552Z,77.27
2018-07-09T01:35:06.041Z,77.61
2018-07-09T01:37:34.203Z,77.82
2018-07-09T01:40:02.308Z,77.96
2018-07-09T01:42:30.453Z,77.53
2018-07-09T01:44:58.545Z,77.60
2018-07-09T01:47:26.630Z,77.99
2018-07-09T01:49:54.773Z,78.14
2018-07-09T01:52:22.890Z,78.04
2018-07-09T01:54:51.379Z,78.37
2018-07-09T01:57:19.533Z,78.72
2018-07-09T01:59:47.704Z,78.81
2018-07-09T02:02:15.819Z,78.90
2018-07-09T02:04:43.926Z,78.78
2018-07-09T02:07:12.013Z,78.80
2018-07-09T02:09:40.084Z,78.89
2018-07-09T02:12:08.229Z,79.33
2018-07-09T02:14:36.401Z,79.19
2018-07-09T02:17:04.571Z,79.38
2018-07-09T02:19:32.687Z,79.53
2018-07-09T02:22:00.824Z,80.05
2018-07-09T02:24:28.966Z,79.97
2018-07-09T02:26:57.102Z,80.25
2018-07-09T02:29:25.208Z,80.08
2018-07-09T02:31:53.465Z,79.31
2018-07-09T02:34:21.595Z,78.95
2018-07-09T02:36:49.695Z,78.88
2018-07-09T02:39:17.911Z,78.61
2018-07-09T02:41:46.045Z,79.12
2018-07-09T02:44:14.228Z,79.85
2018-07-09T02:46:42.389Z,80.03
2018-07-09T02:49:10.624Z,80.29
2018-07-09T02:51:38.641Z,80.45
2018-07-09T02:54:06.778Z,80.40
2018-07-09T02:56:34.951Z,80.38
2018-07-09T02:59:03.125Z,80.26
2018-07-09T03:01:31.230Z,80.18
2018-07-09T03:03:59.374Z,79.79
2018-07-09T03:06:27.510Z,79.77
2018-07-09T03:08:55.688Z,79.31
2018-07-09T03:11:23.839Z,78.88
2018-07-09T03:13:51.982Z,78.95
2018-07-09T03:16:20.099Z,78.59
2018-07-09T03:18:48.273Z,78.95
2018-07-09T03:21:16.440Z,79.15
2018-07-09T03:23:44.617Z,79.13
2018-07-09T03:26:12.787Z,79.33
2018-07-09T03:28:40.937Z,78.83
2018-07-09T03:31:09.125Z,79.16
2018-07-09T03:33:37.290Z,78.75
2018-07-09T03:36:05.466Z,78.85
2018-07-09T03:38:33.653Z,79.56
2018-07-09T03:41:01.785Z,79.04
2018-07-09T03:43:29.888Z,78.69
2018-07-09T03:45:57.999Z,78.13
2018-07-09T03:48:26.170Z,77.60
2018-07-09T03:50:54.265Z,77.24
2018-07-09T03:53:22.418Z,77.53
2018-07-09T03:55:50.573Z,76.84
2018-07-09T03:58:18.667Z,77.03
2018-07-09T04:00:46.772Z,76.70
2018-07-09T04:03:14.868Z,76.17
2018-07-09T04:05:42.972Z,76.29
2018-07-09T04:08:11.058Z,76.09
2018-07-09T04:10:39.170Z,76.15
2018-07-09T04:13:07.473Z,75.99
2018-07-09T04:15:35.554Z,76.43
2018-07-09T04:18:03.642Z,76.46
2018-07-09T04:20:31.748Z,76.13
2018-07-09T04:22:59.816Z,75.67
2018-07-09T04:25:27.946Z,76.03
2018-07-09T04:27:56.034Z,75.42
2018-07-09T04:30:24.137Z,75.16
2018-07-09T04:32:52.216Z,74.87
2018-07-09T04:35:20.289Z,74.89
2018-07-09T04:37:48.857Z,74.21
2018-07-09T04:40:16.891Z,74.04
2018-07-09T04:42:44.981Z,74.57
2018-07-09T04:45:13.096Z,74.03
2018-07-09T04:47:41.198Z,73.70
2018-07-09T04:50:09.259Z,73.29
2018-07-09T04:52:37.349Z,72.86
2018-07-09T04:55:05.423Z,73.21
2018-07-09T04:57:33.579Z,73.21
2018-07-09T05:00:01.689Z,73.36
2018-07-09T05:02:29.780Z,72.77
2018-07-09T05:04:57.918Z,73.19
2018-07-09T05:07:25.985Z,73.43
2018-07-09T05:09:54.089Z,72.84
2018-07-09T05:12:22.178Z,72.49
2018-07-09T05:14:50.280Z,72.14
2018-07-09T05:17:18.356Z,72.82
2018-07-09T05:19:46.521Z,73.95
2018-07-09T05:22:14.592Z,73.28
2018-07-09T05:24:42.677Z,73.53
2018-07-09T05:27:10.795Z,73.35
2018-07-09T05:49:15.918Z,73.81
2018-07-09T05:54:22.542Z,74.20
2018-07-09T05:56:50.627Z,74.21
2018-07-09T05:59:18.736Z,73.72
2018-07-09T06:01:46.842Z,73.07
2018-07-09T06:04:14.948Z,73.14
2018-07-09T06:06:43.036Z,72.85
2018-07-09T06:09:11.598Z,73.04
2018-07-09T06:11:39.750Z,72.45
2018-07-09T06:14:07.881Z,73.03
2018-07-09T06:16:35.956Z,72.73
2018-07-09T06:19:04.066Z,72.40
2018-07-09T06:21:32.171Z,72.01
2018-07-09T06:24:00.972Z,72.10
2018-07-09T06:26:29.092Z,71.68
2018-07-09T06:28:57.192Z,71.22
2018-07-09T06:31:25.323Z,71.31
2018-07-09T06:33:53.407Z,72.14
2018-07-09T06:36:21.508Z,71.69
2018-07-09T06:38:49.639Z,71.46
2018-07-09T06:41:17.730Z,71.02
2018-07-09T06:43:45.838Z,71.40
2018-07-09T06:46:13.939Z,70.80
2018-07-09T06:48:42.045Z,71.30
2018-07-09T06:51:10.125Z,71.01
2018-07-09T06:53:38.269Z,70.96
2018-07-09T06:56:06.374Z,71.00
2018-07-09T06:58:34.460Z,71.35
2018-07-09T07:01:02.669Z,70.88
2018-07-09T07:03:30.740Z,70.87
2018-07-09T07:05:58.847Z,70.86
2018-07-09T07:08:26.952Z,71.48
2018-07-09T07:10:55.360Z,70.82
2018-07-09T07:13:23.525Z,70.84
2018-07-09T07:15:51.624Z,70.57
2018-07-09T07:18:19.766Z,70.64
2018-07-09T07:20:47.894Z,70.27
2018-07-09T07:23:15.994Z,69.50
2018-07-09T07:25:44.106Z,69.61
2018-07-09T07:28:12.210Z,70.01
2018-07-09T07:30:40.368Z,70.35
2018-07-09T07:33:08.484Z,70.09
2018-07-09T07:35:36.550Z,69.80
2018-07-09T07:38:04.654Z,69.22
2018-07-09T07:40:32.767Z,69.20
2018-07-09T07:43:00.908Z,67.68
2018-07-09T07:45:28.996Z,66.11
2018-07-09T07:47:57.119Z,64.96
2018-07-09T07:50:25.316Z,64.79
2018-07-09T07:52:53.328Z,64.19
2018-07-09T07:55:21.468Z,62.50
2018-07-09T07:57:49.582Z,60.33
2018-07-09T08:00:17.666Z,58.23
2018-07-09T08:02:45.877Z,58.38
2018-07-09T08:05:14.009Z,58.44
2018-07-09T08:07:42.117Z,58.56
2018-07-09T08:10:10.207Z,58.67
2018-07-09T08:15:06.519Z,56.25
2018-07-09T08:17:34.634Z,55.34
2018-07-09T08:20:02.796Z,54.94
2018-07-09T08:22:30.885Z,53.72
2018-07-09T08:24:59.095Z,54.53
2018-07-09T08:27:27.362Z,55.62
2018-07-09T08:29:55.443Z,52.94
2018-07-09T08:32:23.607Z,50.89
2018-07-09T08:34:52.025Z,49.55
2018-07-09T08:37:20.173Z,49.62
2018-07-09T08:39:48.288Z,48.83
2018-07-09T08:42:16.408Z,46.11
2018-07-09T08:44:44.549Z,47.37
2018-07-09T08:47:13.424Z,46.32
2018-07-09T08:49:41.684Z,44.50
2018-07-09T08:52:09.803Z,45.14
2018-07-09T08:54:37.966Z,44.72
2018-07-09T08:57:06.061Z,43.28
2018-07-09T08:59:34.444Z,41.73
2018-07-09T09:02:02.579Z,40.49
2018-07-09T09:04:30.704Z,42.46
2018-07-09T09:06:58.854Z,44.13
2018-07-09T09:09:27.015Z,47.34
2018-07-09T09:11:55.121Z,50.38
2018-07-09T09:14:23.524Z,51.27
2018-07-09T09:16:51.643Z,52.31
2018-07-09T09:19:19.727Z,49.74
2018-07-09T09:21:47.792Z,47.41
2018-07-09T09:24:16.448Z,47.41
2018-07-09T09:26:44.567Z,47.89
2018-07-09T09:29:12.648Z,48.38
2018-07-09T09:31:40.837Z,50.21
2018-07-09T09:34:08.958Z,51.13
2018-07-09T09:36:37.143Z,52.20
2018-07-09T09:39:07.056Z,53.59
2018-07-09T09:41:35.176Z,51.22
2018-07-09T09:44:03.310Z,51.99
2018-07-09T09:46:31.426Z,51.00
2018-07-09T09:48:59.532Z,50.13
2018-07-09T09:51:27.656Z,47.80
2018-07-09T09:53:55.779Z,47.21
2018-07-09T09:56:24.308Z,45.81
2018-07-09T09:58:52.439Z,46.38
2018-07-09T10:01:20.552Z,47.18
2018-07-09T10:03:48.681Z,46.85
2018-07-09T10:06:16.837Z,47.23
2018-07-09T10:08:45.045Z,48.51
2018-07-09T10:11:13.177Z,48.43
2018-07-09T10:13:41.277Z,48.84
2018-07-09T10:16:09.416Z,48.47
2018-07-09T10:18:37.590Z,46.99
2018-07-09T10:21:06.204Z,45.65
2018-07-09T10:23:34.380Z,44.90
2018-07-09T10:26:02.539Z,44.62
2018-07-09T10:28:30.681Z,43.93
2018-07-09T10:30:58.896Z,41.73
2018-07-09T10:33:27.199Z,43.30
2018-07-09T10:35:55.304Z,43.20
2018-07-09T10:38:23.414Z,43.28
2018-07-09T10:40:51.575Z,41.60
2018-07-09T10:43:19.680Z,43.66
2018-07-09T10:45:47.769Z,44.24
2018-07-09T10:48:15.861Z,45.07
2018-07-09T10:50:43.989Z,44.92
2018-07-09T10:53:12.110Z,45.78
2018-07-09T10:55:40.266Z,46.35
2018-07-09T10:58:08.469Z,46.73
2018-07-09T11:00:36.688Z,45.38
2018-07-09T11:03:05.151Z,44.65
2018-07-09T11:05:33.388Z,45.16
2018-07-09T11:08:01.554Z,46.47
2018-07-09T11:10:29.730Z,47.08
2018-07-09T11:12:57.856Z,48.31
2018-07-09T11:15:25.999Z,47.52
2018-07-09T11:17:54.104Z,48.33
2018-07-09T11:20:22.219Z,48.20
2018-07-09T11:22:50.352Z,48.34
2018-07-09T11:25:18.515Z,47.37
2018-07-09T11:27:46.656Z,47.23
2018-07-09T11:30:14.807Z,48.48
2018-07-09T11:32:42.914Z,49.07
2018-07-09T11:35:11.068Z,48.88
2018-07-09T11:37:39.226Z,48.90
2018-07-09T11:40:07.414Z,48.90
2018-07-09T11:42:35.540Z,47.87
2018-07-09T11:45:03.674Z,47.34
2018-07-09T11:47:31.838Z,46.02
2018-07-09T11:49:59.987Z,46.75
2018-07-09T11:52:28.137Z,46.68
2018-07-09T11:54:56.269Z,46.59
2018-07-09T11:57:24.417Z,45.72
2018-07-09T11:59:52.585Z,46.99
2018-07-09T12:02:20.698Z,46.19
2018-07-09T12:04:48.862Z,45.62
2018-07-09T12:07:16.965Z,45.94
2018-07-09T12:09:45.088Z,45.60
2018-07-09T12:12:13.208Z,45.39
2018-07-09T12:14:41.337Z,46.21
2018-07-09T12:17:09.539Z,45.54
2018-07-09T12:19:37.663Z,45.99
2018-07-09T12:22:05.896Z,46.13
2018-07-09T12:24:34.060Z,46.75
2018-07-09T12:27:02.209Z,45.49
2018-07-09T12:29:30.410Z,45.04
2018-07-09T12:31:58.557Z,46.18
2018-07-09T12:34:26.696Z,46.97
2018-07-09T12:36:54.836Z,47.31
2018-07-09T12:39:22.984Z,46.73
2018-07-09T12:41:51.137Z,46.49
2018-07-09T12:44:19.272Z,47.27
2018-07-09T12:46:47.457Z,48.43
2018-07-09T12:49:15.573Z,48.76
2018-07-09T12:51:43.732Z,48.50
2018-07-09T12:54:11.904Z,47.86
2018-07-09T12:56:40.049Z,48.24
2018-07-09T12:59:08.224Z,49.06
2018-07-09T13:01:36.444Z,49.40
2018-07-09T13:04:04.539Z,49.79
2018-07-09T13:06:32.668Z,48.98
2018-07-09T13:09:00.814Z,48.83
2018-07-09T13:11:28.995Z,47.95
2018-07-09T13:13:57.160Z,48.33
2018-07-09T13:16:25.280Z,48.11
2018-07-09T13:18:53.431Z,48.81
2018-07-09T13:21:21.609Z,48.78
2018-07-09T13:23:49.774Z,49.79
2018-07-09T13:26:17.892Z,51.22
2018-07-09T13:28:46.012Z,50.09
2018-07-09T13:31:14.204Z,49.73
2018-07-09T13:33:42.428Z,47.92
2018-07-09T13:36:10.581Z,48.66
2018-07-09T13:38:38.680Z,47.78
2018-07-09T13:41:06.800Z,47.55
2018-07-09T13:43:34.957Z,47.83
2018-07-09T13:46:03.141Z,47.80
2018-07-09T13:48:31.289Z,47.79
2018-07-09T13:50:59.441Z,46.88
2018-07-09T13:53:27.617Z,48.27
2018-07-09T13:55:55.730Z,48.44
2018-07-09T13:58:23.848Z,48.94
2018-07-09T14:00:51.991Z,48.41
2018-07-09T14:03:20.130Z,48.33
2018-07-09T14:05:48.290Z,47.99
2018-07-09T14:08:16.462Z,48.11
2018-07-09T14:10:44.611Z,48.62
2018-07-09T14:13:12.741Z,48.63
2018-07-09T14:15:40.878Z,48.50
2018-07-09T14:18:08.976Z,48.02
2018-07-09T14:20:42.797Z,49.24
2018-07-09T14:23:12.191Z,48.65
2018-07-09T14:25:40.519Z,48.11
2018-07-09T14:28:08.595Z,48.64
2018-07-09T14:30:36.890Z,47.63
2018-07-09T14:33:05.289Z,47.63
2018-07-09T14:35:33.470Z,48.54
2018-07-09T14:38:01.564Z,47.53
2018-07-09T14:40:29.705Z,47.06
2018-07-09T14:42:57.861Z,47.69
2018-07-09T14:45:26.032Z,47.97
2018-07-09T14:47:54.219Z,47.82
2018-07-09T14:50:22.395Z,47.02
2018-07-09T14:52:50.556Z,47.43
2018-07-09T14:55:18.686Z,45.78
2018-07-09T14:57:46.809Z,46.45
2018-07-09T15:00:14.961Z,46.76
2018-07-09T15:02:43.090Z,47.81
2018-07-09T15:05:11.225Z,47.89
2018-07-09T15:07:39.376Z,49.07
2018-07-09T15:10:07.492Z,47.75
2018-07-09T15:12:35.639Z,49.29
2018-07-09T15:15:03.819Z,49.06
2018-07-09T15:17:31.921Z,48.93
2018-07-09T15:20:00.014Z,48.35
2018-07-09T15:22:28.153Z,49.19
2018-07-09T15:24:56.294Z,49.78
2018-07-09T15:27:24.414Z,49.01
2018-07-09T15:29:52.622Z,49.33
2018-07-09T15:32:25.923Z,49.62
2018-07-09T15:34:54.130Z,48.49
2018-07-09T15:37:22.301Z,48.78
2018-07-09T15:39:50.523Z,48.76
2018-07-09T15:42:18.651Z,48.86
2018-07-09T15:44:46.814Z,49.77
2018-07-09T15:47:14.944Z,51.00
2018-07-09T15:49:43.420Z,50.51
2018-07-09T15:52:11.552Z,50.19
2018-07-09T15:54:39.664Z,50.34
2018-07-09T15:57:07.886Z,50.99
2018-07-09T15:59:36.053Z,49.35
2018-07-09T16:02:04.229Z,49.65
2018-07-09T16:04:32.337Z,51.40
2018-07-09T16:07:00.419Z,50.38
2018-07-09T16:09:28.538Z,51.27
2018-07-09T16:11:56.682Z,51.84
2018-07-09T16:14:24.821Z,52.15
2018-07-09T16:16:52.972Z,52.78
2018-07-09T16:19:21.107Z,53.13
2018-07-09T16:21:49.275Z,53.81
2018-07-09T16:24:17.381Z,53.42
2018-07-09T16:26:45.554Z,53.83
2018-07-09T16:29:13.825Z,53.44
2018-07-09T16:31:41.785Z,53.83
2018-07-09T16:34:09.975Z,54.31
2018-07-09T16:36:38.137Z,54.18
2018-07-09T16:39:07.000Z,54.77
2018-07-09T16:41:35.296Z,55.40
2018-07-09T16:44:03.474Z,55.09
2018-07-09T16:46:31.578Z,54.88
2018-07-09T16:48:59.781Z,54.89
2018-07-09T16:51:27.907Z,54.96
2018-07-09T16:53:56.048Z,54.39
2018-07-09T16:56:24.159Z,53.85
2018-07-09T16:58:52.322Z,53.63
2018-07-09T17:01:20.407Z,52.77
2018-07-09T17:03:48.523Z,53.56
2018-07-09T17:06:16.712Z,53.90
2018-07-09T17:08:44.864Z,54.47
2018-07-09T17:11:13.009Z,53.94
2018-07-09T17:13:41.114Z,53.56
2018-07-09T17:16:09.268Z,53.32
2018-07-09T17:18:37.425Z,53.53
2018-07-09T17:21:05.548Z,53.07
2018-07-09T17:23:33.657Z,53.46
2018-07-09T17:26:01.791Z,52.82
2018-07-09T17:28:29.895Z,52.92
2018-07-09T17:30:58.071Z,53.58
2018-07-09T17:33:26.239Z,52.74
2018-07-09T17:35:54.447Z,53.06
2018-07-09T17:38:22.645Z,53.25
2018-07-09T17:40:50.771Z,52.41
2018-07-09T17:43:18.925Z,52.42
2018-07-09T17:45:47.175Z,52.29
2018-07-09T17:48:15.255Z,52.43
2018-07-09T17:50:43.344Z,52.19
2018-07-09T17:53:11.477Z,52.85
2018-07-09T17:55:39.651Z,52.57
2018-07-09T17:58:07.777Z,53.14
2018-07-09T18:00:35.914Z,54.13
2018-07-09T18:03:04.010Z,54.09
2018-07-09T18:05:32.213Z,54.57
2018-07-09T18:08:00.366Z,54.99
2018-07-09T18:10:28.526Z,55.06
2018-07-09T18:12:56.956Z,55.32
2018-07-09T18:15:25.106Z,55.48
2018-07-09T18:17:53.314Z,55.79
2018-07-09T18:20:21.400Z,55.26
2018-07-09T18:22:49.520Z,56.09
2018-07-09T18:25:17.613Z,56.46
2018-07-09T18:27:45.712Z,56.22
2018-07-09T18:30:13.842Z,57.22
2018-07-09T18:32:42.090Z,57.75
2018-07-09T18:35:10.212Z,57.42
2018-07-09T18:37:38.362Z,57.92
2018-07-09T18:40:06.504Z,58.41
2018-07-09T18:42:34.621Z,58.90
2018-07-09T18:45:02.822Z,59.30
2018-07-09T18:47:30.940Z,59.55
2018-07-09T18:49:59.122Z,59.71
2018-07-09T18:52:27.919Z,59.47
2018-07-09T18:54:56.021Z,59.31
2018-07-09T18:57:24.183Z,59.80
2018-07-09T18:59:52.987Z,59.57
2018-07-09T19:02:21.127Z,59.50
2018-07-09T19:04:49.215Z,59.98
2018-07-09T19:07:26.556Z,59.72
2018-07-09T19:09:54.716Z,60.30
2018-07-09T19:12:23.101Z,60.23
2018-07-09T19:14:51.870Z,59.92
2018-07-09T19:18:00.924Z,60.07
2018-07-09T19:20:40.405Z,59.51
2018-07-09T19:23:08.324Z,59.43
2018-07-09T19:25:36.493Z,59.13
2018-07-09T19:28:04.783Z,58.45
2018-07-09T19:30:32.008Z,58.85
2018-07-09T19:32:59.228Z,58.18
2018-07-09T19:35:26.451Z,58.59
2018-07-09T19:37:53.873Z,58.61
2018-07-09T19:40:20.669Z,58.69
2018-07-09T19:42:47.764Z,58.71
2018-07-09T19:45:14.873Z,58.39
2018-07-09T19:47:42.055Z,58.87
2018-07-09T19:50:09.091Z,58.77
2018-07-09T19:52:36.214Z,58.42
2018-07-09T19:55:03.329Z,58.69
2018-07-09T19:57:30.451Z,58.47
2018-07-09T19:59:57.555Z,58.60
2018-07-09T20:02:24.686Z,59.20
2018-07-09T20:04:51.801Z,59.16
2018-07-09T20:07:18.915Z,59.35
2018-07-09T20:09:51.522Z,59.33
2018-07-09T20:13:23.678Z,59.43
2018-07-09T20:15:56.015Z,59.54
2018-07-09T20:18:23.169Z,59.46
2018-07-09T20:20:50.334Z,59.32
2018-07-09T20:23:17.439Z,59.72
2018-07-09T20:25:44.534Z,59.83
2018-07-09T20:28:11.648Z,59.90
2018-07-09T20:30:38.754Z,59.95
2018-07-09T20:33:05.895Z,61.47
2018-07-09T20:35:33.026Z,62.04
2018-07-09T20:38:00.145Z,62.67
2018-07-09T20:40:27.268Z,62.73
2018-07-09T20:42:54.388Z,63.35
2018-07-09T20:45:21.503Z,62.45
2018-07-09T20:47:48.626Z,62.39
2018-07-09T20:50:15.744Z,62.34
2018-07-09T20:52:42.858Z,62.61
2018-07-09T20:55:10.000Z,62.63
2018-07-09T20:57:37.130Z,62.74
2018-07-09T21:00:04.244Z,62.99
2018-07-09T21:02:31.358Z,62.49
2018-07-09T21:04:58.477Z,62.89
2018-07-09T21:07:25.679Z,63.32
2018-07-09T21:09:52.791Z,62.56
2018-07-09T21:12:19.897Z,63.02
2018-07-09T21:14:46.995Z,62.64
2018-07-09T21:17:14.109Z,62.59
2018-07-09T21:19:41.861Z,62.34
2018-07-09T21:22:09.056Z,62.70
2018-07-09T21:24:36.151Z,62.86
2018-07-09T21:27:03.276Z,63.14
2018-07-09T21:29:30.400Z,63.69
2018-07-09T21:31:57.517Z,63.30
2018-07-09T21:34:24.637Z,63.10
2018-07-09T21:36:51.765Z,63.14
2018-07-09T21:39:18.884Z,63.54
2018-07-09T21:41:46.020Z,64.01
2018-07-09T21:44:13.146Z,63.75
2018-07-09T21:46:40.276Z,64.18
2018-07-09T21:49:07.408Z,64.51
2018-07-09T21:51:35.322Z,64.52
2018-07-09T21:54:02.454Z,64.93
2018-07-09T21:56:29.699Z,65.61
2018-07-09T21:58:56.746Z,66.06
2018-07-09T22:01:23.880Z,66.50
2018-07-09T22:03:51.013Z,66.92
2018-07-09T22:06:18.141Z,67.25
2018-07-09T22:08:45.270Z,67.65
2018-07-09T22:11:12.389Z,67.81
2018-07-09T22:13:39.514Z,68.19
2018-07-09T22:16:06.679Z,68.57
2018-07-09T22:18:33.788Z,69.02
2018-07-09T22:21:00.922Z,68.97
2018-07-09T22:23:28.029Z,69.31
2018-07-09T22:25:55.144Z,69.38
2018-07-09T22:28:22.240Z,69.86
2018-07-09T22:30:50.344Z,69.99
2018-07-09T22:33:18.467Z,70.16
2018-07-09T22:35:46.568Z,70.27
2018-07-09T22:38:14.661Z,70.78
2018-07-09T22:40:42.784Z,71.36
2018-07-09T22:43:22.285Z,71.50
2018-07-09T22:45:50.371Z,71.35
2018-07-09T22:48:18.497Z,71.65
2018-07-09T22:50:46.697Z,71.71
2018-07-09T22:53:14.828Z,72.19
2018-07-09T22:55:54.223Z,72.17
2018-07-09T22:58:22.364Z,72.31
2018-07-09T23:00:50.493Z,72.49
2018-07-09T23:03:18.654Z,72.64
2018-07-09T23:05:47.140Z,73.07
2018-07-09T23:08:15.272Z,72.80
2018-07-09T23:13:00.071Z,73.24
2018-07-09T23:15:39.630Z,73.50
2018-07-09T23:19:23.184Z,73.67
2018-07-09T23:22:01.570Z,74.34
2018-07-09T23:24:28.710Z,74.82
2018-07-09T23:26:56.204Z,74.40
2018-07-09T23:29:23.311Z,74.16
2018-07-09T23:31:50.515Z,73.95
2018-07-09T23:34:18.284Z,73.56
2018-07-09T23:36:45.416Z,73.32
2018-07-09T23:39:12.721Z,73.43
2018-07-09T23:41:39.841Z,73.67
2018-07-09T23:44:06.981Z,73.49
2018-07-09T23:46:34.116Z,73.69
2018-07-09T23:49:01.245Z,73.57
2018-07-09T23:51:28.372Z,73.60
2018-07-09T23:53:55.488Z,73.97
2018-07-09T23:57:01.974Z,74.07
2018-07-09T23:59:41.602Z,74.33
